Atlantic - Newfoundland: Past 24 Hour Conditions

 

Chevery

09:00 PM AST 24 July 2014
This table is a summary of hourly weather conditions for the past 24 hours.
Date / Time
(AST)
Wind(knots) Conditions Visibility(km) Pressure(kPa) Air tempC) Relative humidity(%) Dew pointC)
24 July 2014
21:00 SSW 4 N/A N/A 100.7 11 87 9
20:00 SSW 7 N/A N/A 100.7 12 80 8
19:00 SW 7 N/A N/A 100.7 12 78 9
18:00 SW 5 N/A N/A 100.6 16 67 10
17:00 SW 5 N/A N/A 100.6 14 73 9
16:00 SW 11 N/A N/A 100.6 16 69 10
15:00 SSW 11 N/A N/A 100.6 15 73 11
14:00 SSW 11 N/A N/A 100.6 16 71 11
13:00 SSW 8 N/A N/A 100.6 16 70 10
12:00 SSW 11 N/A N/A 100.6 17 68 11
11:00 SSW 7 N/A N/A 100.6 18 65 11
10:00 N 2 N/A N/A 100.6 21 45 9
9:00 W 3 N/A N/A 100.5 20 52 10
8:00 N 8 N/A N/A 100.5 19 58 11
7:00 NNW 11 gust 16 N/A N/A 100.5 18 63 11
6:00 NNW 8 N/A N/A 100.4 17 70 12
5:00 NW 10 N/A N/A 100.3 16 80 13
4:00 NW 10 N/A N/A 100.2 16 93 15
3:00 WNW 4 N/A N/A 100.0 12 100 12
2:00 S 5 N/A N/A 99.9 13 100 13
1:00 SSW 4 N/A N/A 99.9 11 100 11
0:00 SW 4 N/A N/A 99.9 11 100 11
23 July 2014
23:00 WSW 5 N/A N/A 99.9 13 100 13
22:00 SSW 10 N/A N/A 99.9 14 100 14
21:00 SSW 10 N/A N/A 99.9 14 99 14
 
Map of Atlantic - Newfoundland marine weather areas Southwestern Grand Banks - 44138 Banquereau - 44139 Tail of the Bank - 44140 Nickerson Bank - 44251 Northeast Burgeo Bank - 44255 Blanc-Sablon Airport Cap Whittle Chevery Natashquan Airport Heath Point Miscou Island Grand Étang Ingonish Beach North Mountain St.Paul Island J.A. Douglas McCurdy Sydney Airport Charlottetown Airport East Point North Cape Argentia Bonavista Burgeo Cape Race Corner Brook Daniel's Harbour Englee Ferolle Point La Scie Port aux Basques Rocky Harbour Sagona Island St. Anthony Airport St. John's Int'l Airport St. Lawrence Stephenville Airport Twillingate Winterland Wreckhouse Cartwright Airport Mary's Harbour Grates Cove Pool's Island Marticot Island Long Pond Îles de la Madeleine Airport
Legend: buoyBuoy land stationLand Station